createdAt,value
2023-03-25T00:00:28.660Z,1.70
2023-03-25T00:02:57.363Z,2.33
2023-03-25T00:05:26.611Z,2.30
2023-03-25T00:07:56.373Z,2.55
2023-03-25T00:10:24.661Z,2.08
2023-03-25T00:12:53.197Z,2.00
2023-03-25T00:15:22.436Z,2.17
2023-03-25T00:17:50.712Z,2.40
2023-03-25T00:20:18.935Z,2.47
2023-03-25T00:22:46.913Z,2.00
2023-03-25T00:25:19.475Z,2.03
2023-03-25T00:27:49.201Z,2.03
2023-03-25T00:30:18.433Z,2.03
2023-03-25T00:32:49.830Z,2.20
2023-03-25T00:35:19.388Z,2.07
2023-03-25T00:37:59.982Z,2.13
2023-03-25T00:40:34.619Z,2.30
2023-03-25T00:43:03.986Z,2.30
2023-03-25T00:45:32.689Z,2.05
2023-03-25T00:48:00.720Z,1.80
2023-03-25T00:50:29.059Z,2.47
2023-03-25T00:52:57.212Z,2.07
2023-03-25T00:55:25.183Z,2.13
2023-03-25T00:57:54.677Z,3.05
2023-03-25T01:00:22.632Z,1.77
2023-03-25T01:02:53.807Z,1.90
2023-03-25T01:05:22.403Z,2.17
2023-03-25T01:07:51.732Z,2.30
2023-03-25T01:10:19.924Z,1.90
2023-03-25T01:12:48.170Z,2.13
2023-03-25T01:15:17.734Z,1.80
2023-03-25T01:17:46.232Z,2.25
2023-03-25T01:20:14.801Z,2.58
2023-03-25T01:22:42.847Z,2.30
2023-03-25T01:25:11.045Z,2.17
2023-03-25T01:27:39.092Z,2.53
2023-03-25T01:30:08.378Z,2.35
2023-03-25T01:32:38.005Z,2.35
2023-03-25T01:35:07.642Z,2.67
2023-03-25T01:37:36.457Z,2.20
2023-03-25T01:40:07.239Z,2.08
2023-03-25T01:42:35.776Z,2.00
2023-03-25T01:45:23.328Z,2.58
2023-03-25T01:47:58.480Z,2.30
2023-03-25T01:50:29.130Z,2.85
2023-03-25T01:52:59.691Z,2.42
2023-03-25T01:55:28.417Z,2.60
2023-03-25T01:57:59.740Z,2.10
2023-03-25T02:00:28.062Z,2.40
2023-03-25T02:03:00.619Z,2.57
2023-03-25T02:05:35.910Z,2.60
2023-03-25T02:08:09.128Z,2.00
2023-03-25T02:10:38.364Z,2.40
2023-03-25T02:13:07.996Z,2.42
2023-03-25T02:15:47.766Z,2.30
2023-03-25T02:18:37.766Z,2.23
2023-03-25T02:21:34.136Z,2.63
2023-03-25T02:24:29.915Z,2.30
2023-03-25T02:27:14.983Z,2.47
2023-03-25T02:30:18.360Z,2.40
2023-03-25T02:33:06.134Z,2.50
2023-03-25T02:35:50.188Z,2.30
2023-03-25T02:38:33.269Z,2.30
2023-03-25T02:41:07.862Z,2.30
2023-03-25T02:43:41.150Z,2.50
2023-03-25T02:46:12.881Z,2.63
2023-03-25T02:48:46.209Z,1.95
2023-03-25T02:51:18.880Z,2.30
2023-03-25T02:53:51.203Z,2.50
2023-03-25T02:56:23.604Z,2.60
2023-03-25T02:58:55.468Z,2.33
2023-03-25T03:01:26.982Z,2.50
2023-03-25T03:03:55.379Z,2.22
2023-03-25T03:06:25.636Z,2.50
2023-03-25T03:09:12.267Z,2.50
2023-03-25T03:11:47.400Z,2.47
2023-03-25T03:14:30.323Z,2.60
2023-03-25T03:17:08.693Z,2.13
2023-03-25T03:19:41.670Z,2.28
2023-03-25T03:22:19.331Z,2.37
2023-03-25T03:24:52.759Z,2.75
2023-03-25T03:27:33.033Z,2.63
2023-03-25T03:30:07.705Z,1.90
2023-03-25T03:32:43.610Z,2.20
2023-03-25T03:35:18.060Z,2.13
2023-03-25T03:37:52.547Z,2.13
2023-03-25T03:40:24.960Z,1.90
2023-03-25T03:42:58.345Z,2.30
2023-03-25T03:45:30.675Z,2.37
2023-03-25T03:48:01.556Z,2.30
2023-03-25T03:50:33.304Z,2.40
2023-03-25T03:53:07.537Z,2.20
2023-03-25T03:55:42.076Z,2.67
2023-03-25T03:58:16.245Z,2.47
2023-03-25T04:00:49.911Z,2.20
2023-03-25T04:03:24.445Z,2.70
2023-03-25T04:05:58.847Z,2.70
2023-03-25T04:08:31.895Z,2.83
2023-03-25T04:11:07.978Z,2.40
2023-03-25T04:13:39.150Z,3.03
2023-03-25T04:16:08.550Z,2.37
2023-03-25T04:18:36.762Z,2.83
2023-03-25T04:21:05.528Z,2.67
2023-03-25T04:23:34.782Z,2.07
2023-03-25T04:26:04.452Z,2.50
2023-03-25T04:28:33.372Z,2.63
2023-03-25T04:31:05.528Z,2.60
2023-03-25T04:33:33.585Z,2.83
2023-03-25T04:36:02.230Z,2.38
2023-03-25T04:38:30.578Z,2.53
2023-03-25T04:41:00.246Z,2.70
2023-03-25T04:43:29.668Z,3.10
2023-03-25T04:46:00.131Z,3.03
2023-03-25T04:48:30.945Z,2.77
2023-03-25T04:50:59.391Z,2.60
2023-03-25T04:53:28.152Z,3.17
2023-03-25T04:55:56.520Z,2.80
2023-03-25T04:58:24.494Z,3.08
2023-03-25T05:00:54.462Z,3.70
2023-03-25T05:03:24.212Z,2.83
2023-03-25T05:05:52.957Z,3.03
2023-03-25T05:08:22.427Z,3.20
2023-03-25T05:10:50.649Z,3.37
2023-03-25T05:13:18.920Z,3.37
2023-03-25T05:15:46.908Z,3.10
2023-03-25T05:18:17.612Z,3.30
2023-03-25T05:20:51.172Z,2.83
2023-03-25T05:23:19.445Z,2.73
2023-03-25T05:25:48.227Z,2.97
2023-03-25T05:28:17.909Z,2.80
2023-03-25T05:30:47.887Z,3.30
2023-03-25T05:33:18.974Z,2.97
2023-03-25T05:35:47.196Z,2.47
2023-03-25T05:38:18.428Z,3.00
2023-03-25T05:40:47.728Z,3.03
2023-03-25T05:43:16.640Z,2.90
2023-03-25T05:45:46.906Z,2.83
2023-03-25T05:48:15.261Z,3.10
2023-03-25T05:50:44.935Z,3.03
2023-03-25T05:53:15.510Z,2.87
2023-03-25T05:55:47.492Z,2.63
2023-03-25T05:58:17.526Z,2.73
2023-03-25T06:00:47.055Z,3.10
2023-03-25T06:03:15.261Z,2.90
2023-03-25T06:05:44.655Z,2.43
2023-03-25T06:08:12.839Z,2.60
2023-03-25T06:10:40.771Z,2.77
2023-03-25T06:13:08.983Z,2.47
2023-03-25T06:15:40.709Z,2.30
2023-03-25T06:18:10.813Z,2.88
2023-03-25T06:20:39.228Z,2.20
2023-03-25T06:23:09.948Z,2.30
2023-03-25T06:25:40.218Z,2.37
2023-03-25T06:28:08.234Z,2.17
2023-03-25T06:30:36.317Z,2.70
2023-03-25T06:33:06.339Z,2.73
2023-03-25T06:35:34.484Z,2.27
2023-03-25T06:38:02.572Z,2.80
2023-03-25T06:40:32.299Z,3.13
2023-03-25T06:43:00.480Z,2.80
2023-03-25T06:45:29.530Z,2.40
2023-03-25T06:47:57.820Z,2.80
2023-03-25T06:50:26.248Z,2.70
2023-03-25T06:52:54.390Z,2.60
2023-03-25T06:55:22.509Z,2.43
2023-03-25T06:57:55.282Z,2.60
2023-03-25T07:00:24.858Z,3.20
2023-03-25T07:02:53.022Z,2.60
2023-03-25T07:05:21.053Z,2.50
2023-03-25T07:07:49.135Z,2.97
2023-03-25T07:10:17.428Z,2.50
2023-03-25T07:12:45.439Z,2.53
2023-03-25T07:15:15.508Z,2.40
2023-03-25T07:17:43.992Z,2.43
2023-03-25T07:20:14.446Z,2.73
2023-03-25T07:22:43.804Z,2.63
2023-03-25T07:25:13.392Z,2.50
2023-03-25T07:27:41.827Z,2.47
2023-03-25T07:30:10.878Z,2.67
2023-03-25T07:32:40.572Z,2.50
2023-03-25T07:35:10.722Z,2.97
2023-03-25T07:37:38.806Z,2.60
2023-03-25T07:40:08.219Z,2.28
2023-03-25T07:42:40.795Z,2.03
2023-03-25T07:45:09.721Z,2.07
2023-03-25T07:47:38.130Z,2.20
2023-03-25T07:50:09.202Z,2.10
2023-03-25T07:52:37.194Z,2.10
2023-03-25T07:55:05.882Z,1.92
2023-03-25T07:57:33.892Z,2.00
2023-03-25T08:00:01.864Z,1.95
2023-03-25T08:02:31.815Z,1.67
2023-03-25T08:05:00.873Z,1.80
2023-03-25T08:07:34.413Z,1.53
2023-03-25T08:10:02.641Z,1.50
2023-03-25T08:12:31.003Z,1.50
2023-03-25T08:14:59.958Z,1.97
2023-03-25T08:17:28.195Z,1.70
2023-03-25T08:19:56.707Z,1.53
2023-03-25T08:22:24.698Z,1.80
2023-03-25T08:24:54.477Z,1.77
2023-03-25T08:27:22.466Z,1.60
2023-03-25T08:29:54.546Z,1.80
2023-03-25T08:32:22.853Z,1.90
2023-03-25T08:34:51.194Z,1.93
2023-03-25T08:37:23.545Z,2.00
2023-03-25T08:39:55.960Z,1.80
2023-03-25T08:42:24.041Z,2.07
2023-03-25T08:44:52.044Z,1.70
2023-03-25T08:47:19.973Z,2.17
2023-03-25T08:49:49.233Z,1.90
2023-03-25T08:52:17.242Z,1.80
2023-03-25T08:54:45.464Z,1.60
2023-03-25T08:57:15.038Z,1.77
2023-03-25T08:59:44.520Z,1.63
2023-03-25T09:02:13.642Z,1.50
2023-03-25T09:04:42.039Z,1.83
2023-03-25T09:07:12.575Z,2.08
2023-03-25T09:09:41.141Z,1.83
2023-03-25T09:12:10.038Z,1.63
2023-03-25T09:14:39.640Z,1.70
2023-03-25T09:17:07.716Z,2.00
2023-03-25T09:19:38.083Z,2.13
2023-03-25T09:22:06.892Z,2.00
2023-03-25T09:24:35.920Z,2.37
2023-03-25T09:27:04.583Z,2.63
2023-03-25T09:29:32.640Z,2.55
2023-03-25T09:32:02.512Z,3.10
2023-03-25T09:34:31.125Z,2.47
2023-03-25T09:36:59.399Z,2.87
2023-03-25T09:39:33.810Z,2.45
2023-03-25T09:42:30.640Z,3.07
2023-03-25T09:45:15.654Z,2.95
2023-03-25T09:47:56.622Z,2.77
2023-03-25T09:50:26.687Z,2.70
2023-03-25T09:53:00.965Z,3.07
2023-03-25T09:55:36.046Z,2.70
2023-03-25T09:58:15.918Z,2.67
2023-03-25T10:00:45.966Z,2.70
2023-03-25T10:03:21.347Z,2.10
2023-03-25T10:06:02.542Z,2.10
2023-03-25T10:08:42.693Z,2.13
2023-03-25T10:11:18.469Z,2.30
2023-03-25T10:13:57.311Z,1.93
2023-03-25T10:16:33.870Z,2.30
2023-03-25T10:19:24.024Z,1.73
2023-03-25T10:21:58.429Z,1.90
2023-03-25T10:24:29.405Z,2.10
2023-03-25T10:27:03.705Z,1.98
2023-03-25T10:29:37.013Z,2.13
2023-03-25T10:32:15.705Z,2.40
2023-03-25T10:34:49.810Z,2.50
2023-03-25T10:37:24.168Z,2.53
2023-03-25T10:39:53.802Z,2.22
2023-03-25T10:42:28.111Z,2.70
2023-03-25T10:44:57.848Z,2.50
2023-03-25T10:47:31.884Z,3.00
2023-03-25T10:50:04.505Z,2.78
2023-03-25T10:52:32.564Z,3.08
2023-03-25T10:55:00.652Z,3.10
2023-03-25T10:57:31.693Z,2.67
2023-03-25T11:00:07.781Z,2.42
2023-03-25T11:02:35.982Z,2.42
2023-03-25T11:05:08.357Z,2.88
2023-03-25T11:07:38.519Z,2.60
2023-03-25T11:10:15.765Z,2.40
2023-03-25T11:12:48.122Z,1.90
2023-03-25T11:15:19.602Z,2.75
2023-03-25T11:17:49.107Z,2.15
2023-03-25T11:20:26.610Z,2.13
2023-03-25T11:22:59.522Z,2.17
2023-03-25T11:25:37.285Z,2.05
2023-03-25T11:28:12.570Z,2.08
2023-03-25T11:31:14.128Z,1.50
2023-03-25T11:33:44.204Z,2.10
2023-03-25T11:36:26.134Z,2.20
2023-03-25T11:38:59.081Z,2.55
2023-03-25T11:41:33.484Z,2.60
2023-03-25T11:44:03.911Z,2.83
2023-03-25T11:46:32.488Z,2.10
2023-03-25T11:49:12.065Z,1.98
2023-03-25T11:51:43.700Z,1.52
2023-03-25T11:54:16.806Z,1.92
2023-03-25T11:56:45.859Z,2.00
2023-03-25T11:59:23.969Z,1.90
2023-03-25T12:02:01.286Z,1.50
2023-03-25T12:04:29.742Z,2.05
2023-03-25T12:07:06.129Z,1.80
2023-03-25T12:09:34.816Z,1.67
2023-03-25T12:12:32.348Z,1.50
2023-03-25T12:15:15.263Z,2.45
2023-03-25T12:17:57.479Z,1.73
2023-03-25T12:20:33.382Z,2.05
2023-03-25T12:23:18.580Z,2.10
2023-03-25T12:25:55.356Z,1.90
2023-03-25T12:28:36.847Z,1.60
2023-03-25T12:31:15.477Z,1.98
2023-03-25T12:33:52.726Z,1.90
2023-03-25T12:36:48.060Z,1.60
2023-03-25T12:39:42.697Z,1.50
2023-03-25T12:42:26.495Z,1.60
2023-03-25T12:45:23.835Z,1.42
2023-03-25T12:47:57.919Z,1.50
2023-03-25T12:50:38.617Z,1.45
2023-03-25T12:53:24.251Z,2.00
2023-03-25T12:56:05.839Z,1.50
2023-03-25T12:59:02.793Z,2.00
2023-03-25T13:01:40.251Z,1.83
2023-03-25T13:04:38.247Z,2.30
2023-03-25T13:07:10.816Z,1.80
2023-03-25T13:09:47.379Z,1.60
2023-03-25T13:12:27.834Z,1.88
2023-03-25T13:15:01.450Z,1.70
2023-03-25T13:17:35.803Z,1.65
2023-03-25T13:20:09.554Z,1.60
2023-03-25T13:22:44.065Z,1.88
2023-03-25T13:25:21.704Z,1.92
2023-03-25T13:27:53.278Z,1.80
2023-03-25T13:30:30.473Z,1.90
2023-03-25T13:33:06.649Z,1.98
2023-03-25T13:35:43.991Z,1.80
2023-03-25T13:38:18.415Z,1.90
2023-03-25T13:40:53.089Z,1.70
2023-03-25T13:43:34.308Z,1.70
2023-03-25T13:46:07.883Z,1.95
2023-03-25T13:48:43.406Z,1.92
2023-03-25T13:51:11.959Z,2.00
2023-03-25T13:53:48.571Z,1.58
2023-03-25T13:57:04.395Z,1.77
2023-03-25T14:00:00.850Z,1.45
2023-03-25T14:02:52.690Z,1.67
2023-03-25T14:05:51.516Z,1.70
2023-03-25T14:08:51.316Z,2.15
2023-03-25T14:11:26.617Z,1.77
2023-03-25T14:13:58.641Z,1.95
2023-03-25T14:16:34.161Z,2.28
2023-03-25T14:19:05.413Z,1.90
2023-03-25T14:21:41.304Z,1.75
2023-03-25T14:24:15.263Z,1.90
2023-03-25T14:26:48.132Z,1.73
2023-03-25T14:29:25.673Z,2.00
2023-03-25T14:32:07.578Z,1.77
2023-03-25T14:34:39.356Z,2.03
2023-03-25T14:37:29.292Z,1.38
2023-03-25T14:40:00.291Z,1.58
2023-03-25T14:42:42.454Z,1.73
2023-03-25T14:45:50.269Z,1.92
2023-03-25T14:48:37.780Z,1.77
2023-03-25T14:51:22.310Z,2.10
2023-03-25T14:53:54.246Z,1.60
2023-03-25T14:56:26.802Z,2.15
2023-03-25T14:58:58.328Z,1.85
2023-03-25T15:01:32.747Z,1.75
2023-03-25T15:04:16.426Z,1.80
2023-03-25T15:06:44.806Z,2.38
2023-03-25T15:09:15.669Z,2.53
2023-03-25T15:11:45.072Z,2.08
2023-03-25T15:14:17.697Z,2.33
2023-03-25T15:17:02.216Z,2.38
2023-03-25T15:19:51.633Z,2.45
2023-03-25T15:22:27.351Z,2.60
2023-03-25T15:25:16.210Z,2.67
2023-03-25T15:28:31.119Z,2.38
2023-03-25T15:31:36.030Z,3.35
2023-03-25T15:34:22.907Z,2.42
2023-03-25T15:37:18.215Z,2.97
2023-03-25T15:40:19.596Z,2.70
2023-03-25T15:43:09.283Z,2.92
2023-03-25T15:46:09.202Z,2.92
2023-03-25T15:49:07.269Z,2.38
2023-03-25T15:51:52.674Z,2.88
2023-03-25T15:54:34.806Z,1.52
2023-03-25T15:57:07.370Z,1.63
2023-03-25T15:59:41.689Z,1.38
2023-03-25T16:02:19.026Z,0.75
2023-03-25T16:04:49.562Z,1.08
2023-03-25T16:07:22.048Z,1.00
2023-03-25T16:09:51.966Z,0.67
2023-03-25T16:12:22.936Z,0.73
2023-03-25T16:14:52.128Z,0.50
2023-03-25T16:17:22.809Z,0.77
2023-03-25T16:19:54.395Z,0.73
2023-03-25T16:22:33.112Z,0.70
2023-03-25T16:25:05.007Z,0.60
2023-03-25T16:27:37.623Z,1.10
2023-03-25T16:30:21.955Z,0.50
2023-03-25T16:32:50.486Z,0.80
2023-03-25T16:35:22.533Z,1.20
2023-03-25T16:37:52.164Z,1.10
2023-03-25T16:40:28.133Z,1.60
2023-03-25T16:43:05.251Z,1.60
2023-03-25T16:45:33.828Z,1.10
2023-03-25T16:48:07.268Z,1.23
2023-03-25T16:50:36.275Z,1.10
2023-03-25T16:53:05.836Z,1.20
2023-03-25T16:55:46.974Z,1.10
2023-03-25T16:58:19.437Z,1.30
2023-03-25T17:00:50.032Z,1.38
2023-03-25T17:03:39.720Z,1.30
2023-03-25T17:06:14.744Z,1.40
2023-03-25T17:08:42.718Z,1.40
2023-03-25T17:11:14.473Z,1.30
2023-03-25T17:13:45.503Z,1.40
2023-03-25T17:16:14.694Z,1.60
2023-03-25T17:18:42.777Z,1.33
2023-03-25T17:21:13.729Z,1.63
2023-03-25T17:23:47.208Z,1.50
2023-03-25T17:26:21.128Z,1.70
2023-03-25T17:29:02.028Z,1.48
2023-03-25T17:31:38.849Z,1.67
2023-03-25T17:34:08.900Z,1.70
2023-03-25T17:36:40.253Z,1.83
2023-03-25T17:39:20.799Z,1.40
2023-03-25T17:41:55.730Z,1.87
2023-03-25T17:44:26.722Z,1.40
2023-03-25T17:46:56.018Z,1.37
2023-03-25T17:49:27.423Z,1.40
2023-03-25T17:51:55.791Z,1.35
2023-03-25T17:54:23.798Z,1.48
2023-03-25T17:56:55.893Z,1.70
2023-03-25T17:59:26.713Z,1.60
2023-03-25T18:01:55.381Z,2.00
2023-03-25T18:04:24.241Z,1.40
2023-03-25T18:06:59.758Z,1.70
2023-03-25T18:09:27.985Z,1.70
2023-03-25T18:11:57.941Z,1.83
2023-03-25T18:14:26.799Z,1.80
2023-03-25T18:17:04.095Z,2.20
2023-03-25T18:19:34.119Z,1.73
2023-03-25T18:22:07.145Z,1.90
2023-03-25T18:24:39.060Z,2.00
2023-03-25T18:27:14.386Z,1.70
2023-03-25T18:29:45.266Z,1.77
2023-03-25T18:32:13.237Z,1.90
2023-03-25T18:34:41.271Z,1.63
2023-03-25T18:37:12.553Z,2.20
2023-03-25T18:39:40.529Z,1.70
2023-03-25T18:42:09.880Z,1.80
2023-03-25T18:44:39.916Z,2.00
2023-03-25T18:47:10.046Z,2.00
2023-03-25T18:49:38.746Z,1.90
2023-03-25T18:52:06.787Z,2.10
2023-03-25T18:54:34.770Z,2.05
2023-03-25T18:57:02.914Z,2.27
2023-03-25T18:59:35.674Z,1.80
2023-03-25T19:02:05.411Z,2.03
2023-03-25T19:04:35.416Z,1.83
2023-03-25T19:07:04.254Z,1.80
2023-03-25T19:09:32.475Z,2.23
2023-03-25T19:12:00.726Z,1.97
2023-03-25T19:14:28.826Z,1.80
2023-03-25T19:17:03.746Z,2.20
2023-03-25T19:19:33.767Z,2.50
2023-03-25T19:22:03.442Z,2.63
2023-03-25T19:24:31.463Z,2.60
2023-03-25T19:27:00.424Z,2.07
2023-03-25T19:29:30.126Z,2.20
2023-03-25T19:31:58.068Z,2.40
2023-03-25T19:34:33.154Z,2.20
2023-03-25T19:37:06.970Z,1.83
2023-03-25T19:39:37.451Z,2.37
2023-03-25T19:42:05.984Z,2.50
2023-03-25T19:44:33.970Z,2.33
2023-03-25T19:47:02.243Z,2.03
2023-03-25T19:49:39.351Z,2.47
2023-03-25T19:52:09.979Z,2.70
2023-03-25T19:54:38.273Z,2.47
2023-03-25T19:57:06.443Z,2.40
2023-03-25T19:59:36.451Z,2.50
2023-03-25T20:02:04.602Z,2.57
2023-03-25T20:04:34.125Z,2.33
2023-03-25T20:07:02.184Z,2.40
2023-03-25T20:09:31.585Z,2.17
2023-03-25T20:12:05.218Z,2.70
2023-03-25T20:14:33.279Z,2.50
2023-03-25T20:17:05.555Z,2.77
2023-03-25T20:19:33.684Z,2.40
2023-03-25T20:22:03.402Z,2.67
2023-03-25T20:24:35.244Z,2.50
2023-03-25T20:27:03.248Z,2.80
2023-03-25T20:29:31.301Z,3.07
2023-03-25T20:31:59.518Z,3.07
2023-03-25T20:34:27.572Z,2.77
2023-03-25T20:36:57.527Z,2.17
2023-03-25T20:39:25.838Z,2.53
2023-03-25T20:41:56.041Z,3.17
2023-03-25T20:44:23.984Z,3.27
2023-03-25T20:46:51.974Z,3.10
2023-03-25T20:49:21.671Z,2.87
2023-03-25T20:51:50.903Z,3.43
2023-03-25T20:54:19.014Z,3.53
2023-03-25T20:56:47.031Z,3.70
2023-03-25T20:59:17.942Z,3.60
2023-03-25T21:01:53.140Z,2.97
2023-03-25T21:04:21.978Z,3.30
2023-03-25T21:06:50.395Z,2.70
2023-03-25T21:09:18.802Z,3.07
2023-03-25T21:11:48.682Z,2.77
2023-03-25T21:14:18.746Z,3.20
2023-03-25T21:16:47.805Z,2.80
2023-03-25T21:19:16.509Z,2.83
2023-03-25T21:21:44.542Z,3.10
2023-03-25T21:24:13.845Z,2.70
2023-03-25T21:26:41.964Z,2.60
2023-03-25T21:29:09.995Z,3.70
2023-03-25T21:31:40.583Z,3.20
2023-03-25T21:34:08.712Z,3.23
2023-03-25T21:36:38.728Z,2.83
2023-03-25T21:39:08.079Z,3.07
2023-03-25T21:41:39.510Z,3.03
2023-03-25T21:44:10.393Z,3.27
2023-03-25T21:46:42.563Z,3.20
2023-03-25T21:49:11.705Z,3.17
2023-03-25T21:51:42.515Z,2.83
2023-03-25T21:54:10.901Z,2.60
2023-03-25T21:56:42.302Z,3.00
2023-03-25T21:59:10.785Z,3.20
2023-03-25T22:01:41.899Z,2.70
2023-03-25T22:04:10.891Z,3.27
2023-03-25T22:06:39.339Z,2.50
2023-03-25T22:09:12.323Z,2.63
2023-03-25T22:11:40.571Z,2.50
2023-03-25T22:14:09.910Z,2.27
2023-03-25T22:16:39.373Z,2.40
2023-03-25T22:19:08.351Z,2.50
2023-03-25T22:21:38.567Z,3.00
2023-03-25T22:24:08.785Z,2.40
2023-03-25T22:26:39.129Z,2.87
2023-03-25T22:29:09.883Z,2.60
2023-03-25T22:31:42.906Z,2.53
2023-03-25T22:34:13.101Z,3.07
2023-03-25T22:36:49.312Z,2.63
2023-03-25T22:39:18.573Z,2.77
2023-03-25T22:41:47.165Z,2.80
2023-03-25T22:44:17.708Z,2.53
2023-03-25T22:46:49.981Z,2.60
2023-03-25T22:49:20.087Z,2.50
2023-03-25T22:51:48.579Z,2.23
2023-03-25T22:54:16.689Z,2.80
2023-03-25T22:56:44.775Z,2.70
2023-03-25T22:59:14.392Z,2.73
2023-03-25T23:01:43.322Z,1.80
2023-03-25T23:04:13.920Z,2.87
2023-03-25T23:06:42.121Z,2.40
2023-03-25T23:09:13.221Z,2.57
2023-03-25T23:11:41.325Z,3.10
2023-03-25T23:14:13.261Z,2.53
2023-03-25T23:16:42.257Z,2.20
2023-03-25T23:19:10.518Z,2.97
2023-03-25T23:21:43.134Z,2.30
2023-03-25T23:24:11.745Z,2.37
2023-03-25T23:26:41.641Z,2.10
2023-03-25T23:29:12.021Z,2.17
2023-03-25T23:31:42.061Z,2.67
2023-03-25T23:34:12.440Z,2.70
2023-03-25T23:36:43.332Z,2.37
2023-03-25T23:39:15.354Z,2.30
2023-03-25T23:41:43.685Z,2.30
2023-03-25T23:44:13.225Z,2.37
2023-03-25T23:46:42.873Z,3.00
2023-03-25T23:49:11.316Z,2.27
2023-03-25T23:51:42.636Z,2.17
2023-03-25T23:54:13.394Z,2.63
2023-03-25T23:56:42.606Z,2.40
2023-03-25T23:59:11.800Z,2.77
